createdAt,value
2023-07-10T00:02:21.473Z,15.70
2023-07-10T00:04:51.489Z,15.80
2023-07-10T00:07:21.577Z,15.80
2023-07-10T00:09:51.737Z,15.80
2023-07-10T00:12:24.605Z,15.80
2023-07-10T00:14:57.229Z,15.70
2023-07-10T00:17:27.340Z,15.70
2023-07-10T00:19:57.449Z,15.70
2023-07-10T00:22:27.501Z,15.70
2023-07-10T00:24:57.525Z,15.70
2023-07-10T00:27:27.602Z,15.70
2023-07-10T00:30:00.258Z,15.70
2023-07-10T00:32:30.382Z,15.60
2023-07-10T00:35:00.417Z,15.50
2023-07-10T00:37:30.619Z,15.30
2023-07-10T00:40:00.704Z,15.20
2023-07-10T00:42:30.852Z,15.10
2023-07-10T00:45:04.898Z,15.20
2023-07-10T00:47:39.191Z,15.20
2023-07-10T00:50:13.680Z,15.20
2023-07-10T00:52:46.780Z,15.20
2023-07-10T00:55:21.891Z,15.20
2023-07-10T00:57:54.768Z,15.20
2023-07-10T01:00:28.459Z,15.30
2023-07-10T01:02:58.668Z,15.30
2023-07-10T01:05:29.586Z,15.30
2023-07-10T01:08:02.737Z,15.20
2023-07-10T01:10:35.910Z,15.20
2023-07-10T01:13:07.107Z,15.10
2023-07-10T01:15:39.730Z,15.00
2023-07-10T01:18:12.880Z,14.90
2023-07-10T01:20:44.892Z,14.90
2023-07-10T01:23:20.095Z,14.80
2023-07-10T01:25:53.137Z,14.80
2023-07-10T01:28:24.868Z,14.90
2023-07-10T01:30:58.546Z,14.80
2023-07-10T01:33:31.140Z,14.70
2023-07-10T01:36:03.513Z,14.70
2023-07-10T01:38:41.134Z,14.70
2023-07-10T01:41:21.315Z,14.70
2023-07-10T01:43:51.406Z,14.70
2023-07-10T01:46:23.099Z,14.80
2023-07-10T01:48:55.412Z,14.70
2023-07-10T01:51:26.699Z,14.60
2023-07-10T01:54:04.222Z,14.60
2023-07-10T01:56:34.955Z,14.70
2023-07-10T01:59:05.877Z,14.70
2023-07-10T02:01:36.252Z,14.60
2023-07-10T02:04:06.572Z,14.60
2023-07-10T02:06:39.187Z,14.60
2023-07-10T02:09:12.246Z,14.60
2023-07-10T02:11:42.381Z,14.50
2023-07-10T02:14:12.930Z,14.60
2023-07-10T02:16:43.048Z,14.60
2023-07-10T02:19:13.681Z,14.60
2023-07-10T02:21:44.298Z,14.50
2023-07-10T02:24:16.986Z,14.40
2023-07-10T02:26:47.587Z,14.40
2023-07-10T02:29:17.685Z,14.20
2023-07-10T02:31:47.769Z,14.10
2023-07-10T02:34:17.897Z,14.00
2023-07-10T02:36:47.939Z,13.90
2023-07-10T02:39:21.397Z,13.90
2023-07-10T02:41:51.444Z,13.80
2023-07-10T02:44:21.470Z,13.80
2023-07-10T02:46:51.572Z,13.90
2023-07-10T02:49:21.622Z,13.90
2023-07-10T02:51:51.798Z,14.00
2023-07-10T02:54:24.523Z,14.00
2023-07-10T02:56:54.585Z,14.00
2023-07-10T02:59:29.566Z,14.00
2023-07-10T03:02:01.298Z,14.00
2023-07-10T03:04:31.391Z,14.10
2023-07-10T03:07:04.033Z,14.10
2023-07-10T03:09:36.995Z,14.10
2023-07-10T03:12:10.387Z,14.20
2023-07-10T03:14:40.668Z,14.20
2023-07-10T03:17:11.076Z,14.10
2023-07-10T03:19:41.141Z,14.10
2023-07-10T03:22:11.433Z,14.10
2023-07-10T03:24:44.075Z,14.10
2023-07-10T03:27:14.118Z,14.10
2023-07-10T03:29:44.150Z,14.10
2023-07-10T03:32:14.286Z,14.20
2023-07-10T03:34:44.365Z,14.00
2023-07-10T03:37:14.412Z,14.00
2023-07-10T03:39:47.474Z,14.10
2023-07-10T03:42:17.572Z,14.30
2023-07-10T03:44:47.588Z,14.40
2023-07-10T03:47:17.639Z,14.60
2023-07-10T03:49:47.697Z,14.70
2023-07-10T03:52:17.751Z,14.70
2023-07-10T03:54:50.539Z,14.80
2023-07-10T03:57:20.598Z,14.90
2023-07-10T03:59:50.668Z,14.90
2023-07-10T04:02:20.743Z,15.00
2023-07-10T04:04:50.990Z,15.10
2023-07-10T04:07:21.900Z,15.20
2023-07-10T04:09:55.198Z,15.30
2023-07-10T04:12:26.870Z,15.40
2023-07-10T04:14:58.651Z,15.50
2023-07-10T04:17:28.723Z,15.60
2023-07-10T04:19:58.801Z,15.70
2023-07-10T04:22:28.872Z,15.80
2023-07-10T04:25:07.081Z,15.80
2023-07-10T04:27:37.248Z,15.90
2023-07-10T04:30:08.307Z,16.00
2023-07-10T04:32:38.375Z,16.10
2023-07-10T04:35:09.570Z,16.20
2023-07-10T04:37:39.606Z,16.30
2023-07-10T04:40:14.119Z,16.40
2023-07-10T04:42:44.181Z,16.50
2023-07-10T04:45:14.416Z,16.60
2023-07-10T04:47:45.450Z,16.70
2023-07-10T04:50:15.629Z,16.90
2023-07-10T04:52:45.726Z,17.10
2023-07-10T04:55:18.629Z,17.30
2023-07-10T04:57:48.666Z,17.50
2023-07-10T05:00:19.704Z,17.70
2023-07-10T05:02:50.588Z,17.90
2023-07-10T05:05:20.758Z,18.10
2023-07-10T05:07:50.755Z,18.30
2023-07-10T05:10:23.469Z,18.60
2023-07-10T05:12:54.006Z,18.80
2023-07-10T05:15:24.229Z,19.00
2023-07-10T05:17:54.296Z,19.20
2023-07-10T05:20:24.377Z,19.40
2023-07-10T05:22:54.426Z,19.50
2023-07-10T05:25:27.148Z,19.50
2023-07-10T05:27:57.210Z,19.50
2023-07-10T05:30:27.447Z,19.50
2023-07-10T05:32:57.755Z,19.50
2023-07-10T05:35:27.910Z,19.60
2023-07-10T05:37:57.958Z,19.90
2023-07-10T05:40:30.633Z,20.30
2023-07-10T05:43:00.736Z,20.70
2023-07-10T05:45:30.741Z,21.10
2023-07-10T05:48:00.899Z,21.30
2023-07-10T05:50:30.948Z,21.50
2023-07-10T05:53:00.992Z,21.50
2023-07-10T05:55:33.699Z,21.50
2023-07-10T05:58:03.820Z,21.50
2023-07-10T06:00:33.875Z,21.50
2023-07-10T06:03:04.092Z,21.40
2023-07-10T06:05:34.204Z,21.50
2023-07-10T06:08:04.679Z,21.50
2023-07-10T06:10:37.363Z,21.50
2023-07-10T06:13:07.466Z,21.50
2023-07-10T06:15:37.627Z,21.50
2023-07-10T06:18:07.747Z,21.60
2023-07-10T06:20:37.833Z,21.50
2023-07-10T06:23:07.859Z,21.70
2023-07-10T06:25:45.638Z,21.80
2023-07-10T06:28:16.241Z,21.90
2023-07-10T06:30:47.665Z,21.90
2023-07-10T06:33:18.108Z,21.90
2023-07-10T06:35:48.203Z,22.00
2023-07-10T06:38:18.250Z,22.00
2023-07-10T06:40:51.188Z,22.00
2023-07-10T06:43:22.157Z,21.90
2023-07-10T06:45:52.717Z,21.80
2023-07-10T06:48:22.786Z,21.80
2023-07-10T06:50:53.596Z,21.70
2023-07-10T06:53:27.102Z,21.80
2023-07-10T06:56:03.362Z,21.80
2023-07-10T06:58:36.901Z,21.80
2023-07-10T07:01:08.129Z,21.90
2023-07-10T07:03:40.188Z,22.10
2023-07-10T07:06:10.732Z,22.20
2023-07-10T07:08:40.768Z,22.30
2023-07-10T07:11:13.386Z,22.40
2023-07-10T07:13:43.458Z,22.50
2023-07-10T07:16:14.967Z,22.70
2023-07-10T07:18:46.886Z,22.90
2023-07-10T07:21:18.445Z,22.90
2023-07-10T07:23:48.485Z,23.00
2023-07-10T07:26:21.168Z,22.80
2023-07-10T07:28:51.633Z,22.90
2023-07-10T07:31:21.816Z,23.00
2023-07-10T07:33:52.736Z,22.80
2023-07-10T07:36:22.797Z,23.00
2023-07-10T07:38:52.827Z,23.00
2023-07-10T07:41:25.581Z,23.10
2023-07-10T07:43:55.644Z,23.10
2023-07-10T07:46:25.672Z,23.20
2023-07-10T07:48:55.769Z,23.30
2023-07-10T07:51:25.833Z,23.10
2023-07-10T07:54:06.213Z,23.40
2023-07-10T07:56:38.898Z,23.40
2023-07-10T07:59:09.035Z,23.50
2023-07-10T08:01:39.276Z,23.30
2023-07-10T08:04:09.560Z,23.30
2023-07-10T08:06:40.242Z,23.30
2023-07-10T08:09:11.635Z,23.40
2023-07-10T08:11:44.336Z,23.50
2023-07-10T08:14:14.572Z,23.60
2023-07-10T08:16:44.793Z,23.80
2023-07-10T08:19:14.851Z,24.00
2023-07-10T08:21:44.908Z,24.00
2023-07-10T08:24:14.943Z,24.10
2023-07-10T08:26:47.603Z,24.10
2023-07-10T08:29:31.691Z,24.00
2023-07-10T08:32:03.040Z,23.90
2023-07-10T08:34:34.369Z,23.80
2023-07-10T08:37:04.515Z,23.70
2023-07-10T08:39:34.579Z,23.60
2023-07-10T08:42:13.094Z,23.50
2023-07-10T08:44:43.211Z,23.40
2023-07-10T08:47:26.029Z,23.40
2023-07-10T08:49:59.058Z,23.50
2023-07-10T08:52:36.637Z,23.40
2023-07-10T08:55:06.950Z,23.40
2023-07-10T08:57:40.684Z,23.30
2023-07-10T09:00:13.694Z,23.30
2023-07-10T09:02:46.429Z,23.20
2023-07-10T09:05:20.764Z,23.20
2023-07-10T09:07:52.200Z,23.40
2023-07-10T09:10:24.968Z,23.90
2023-07-10T09:12:59.306Z,24.30
2023-07-10T09:15:36.253Z,24.40
2023-07-10T09:18:09.858Z,24.20
2023-07-10T09:20:40.858Z,24.00
2023-07-10T09:23:20.249Z,23.80
2023-07-10T09:25:57.504Z,23.50
2023-07-10T09:28:30.972Z,23.30
2023-07-10T09:31:10.432Z,22.90
2023-07-10T09:33:47.219Z,22.80
2023-07-10T09:36:18.377Z,22.90
2023-07-10T09:38:49.171Z,23.00
2023-07-10T09:41:24.024Z,23.10
2023-07-10T09:43:58.715Z,23.30
2023-07-10T09:46:31.846Z,23.40
2023-07-10T09:49:04.093Z,23.50
2023-07-10T09:51:34.479Z,23.60
2023-07-10T09:54:08.955Z,23.50
2023-07-10T09:56:40.670Z,23.50
2023-07-10T09:59:22.575Z,23.40
2023-07-10T10:01:54.405Z,23.30
2023-07-10T10:04:26.864Z,23.30
2023-07-10T10:07:02.681Z,23.10
2023-07-10T10:09:33.171Z,22.80
2023-07-10T10:12:08.491Z,22.60
2023-07-10T10:14:45.079Z,22.50
2023-07-10T10:17:18.018Z,22.40
2023-07-10T10:19:51.696Z,22.30
2023-07-10T10:22:21.883Z,22.30
2023-07-10T10:24:52.183Z,22.10
2023-07-10T10:27:31.684Z,21.70
2023-07-10T10:30:17.394Z,21.60
2023-07-10T10:32:52.263Z,21.80
2023-07-10T10:35:26.796Z,21.90
2023-07-10T10:38:19.212Z,22.00
2023-07-10T10:40:53.773Z,22.20
2023-07-10T10:43:43.269Z,22.50
2023-07-10T10:46:27.116Z,22.50
2023-07-10T10:49:07.379Z,22.80
2023-07-10T10:51:43.173Z,23.40
2023-07-10T10:54:33.155Z,24.20
2023-07-10T10:57:13.347Z,25.00
2023-07-10T10:59:46.805Z,25.80
2023-07-10T11:02:31.885Z,26.60
2023-07-10T11:05:05.378Z,27.00
2023-07-10T11:07:35.705Z,27.50
2023-07-10T11:10:09.464Z,27.30
2023-07-10T11:12:39.573Z,27.30
2023-07-10T11:15:17.855Z,27.60
2023-07-10T11:17:55.340Z,27.90
2023-07-10T11:20:27.745Z,28.40
2023-07-10T11:22:59.444Z,28.80
2023-07-10T11:25:33.967Z,28.70
2023-07-10T11:28:08.564Z,29.00
2023-07-10T11:30:39.032Z,29.30
2023-07-10T11:33:21.924Z,29.40
2023-07-10T11:36:19.032Z,30.00
2023-07-10T11:38:59.640Z,29.70
2023-07-10T11:41:31.948Z,29.50
2023-07-10T11:44:22.913Z,29.80
2023-07-10T11:47:15.038Z,29.90
2023-07-10T11:50:15.212Z,30.50
2023-07-10T11:52:45.595Z,30.70
2023-07-10T11:55:17.419Z,30.10
2023-07-10T11:57:47.449Z,29.70
2023-07-10T12:00:28.936Z,29.10
2023-07-10T12:03:04.555Z,29.30
2023-07-10T12:05:42.574Z,30.00
2023-07-10T12:08:17.456Z,30.50
2023-07-10T12:10:48.863Z,31.20
2023-07-10T12:13:24.916Z,31.60
2023-07-10T12:15:56.398Z,32.20
2023-07-10T12:18:29.527Z,32.70
2023-07-10T12:21:04.162Z,32.30
2023-07-10T12:23:34.214Z,31.80
2023-07-10T12:26:07.018Z,31.50
2023-07-10T12:28:37.234Z,31.50
2023-07-10T12:31:14.573Z,31.50
2023-07-10T12:33:46.840Z,31.00
2023-07-10T12:36:30.176Z,31.20
2023-07-10T12:39:02.693Z,31.10
2023-07-10T12:41:36.323Z,31.10
2023-07-10T12:44:07.232Z,31.30
2023-07-10T12:46:38.659Z,31.40
2023-07-10T12:49:14.684Z,31.20
2023-07-10T12:51:50.078Z,31.30
2023-07-10T12:54:24.700Z,31.00
2023-07-10T12:56:56.408Z,31.20
2023-07-10T12:59:29.524Z,31.40
2023-07-10T13:02:04.162Z,31.70
2023-07-10T13:04:35.590Z,31.70
2023-07-10T13:07:30.330Z,31.50
2023-07-10T13:10:03.174Z,31.00
2023-07-10T13:12:34.695Z,30.40
2023-07-10T13:15:05.650Z,29.90
2023-07-10T13:17:39.291Z,29.70
2023-07-10T13:20:22.022Z,29.30
2023-07-10T13:22:55.299Z,28.60
2023-07-10T13:25:25.537Z,28.20
2023-07-10T13:27:55.709Z,27.60
2023-07-10T13:30:27.002Z,27.50
2023-07-10T13:32:57.044Z,27.20
2023-07-10T13:35:27.154Z,27.20
2023-07-10T13:37:59.775Z,27.30
2023-07-10T13:40:29.789Z,27.40
2023-07-10T13:42:59.836Z,27.20
2023-07-10T13:45:29.913Z,27.00
2023-07-10T13:47:59.984Z,26.30
2023-07-10T13:50:30.516Z,26.10
2023-07-10T13:53:03.208Z,25.90
2023-07-10T13:55:40.021Z,26.00
2023-07-10T13:58:19.373Z,25.90
2023-07-10T14:00:49.810Z,25.80
2023-07-10T14:03:21.949Z,25.60
2023-07-10T14:05:53.831Z,25.70
2023-07-10T14:08:29.625Z,25.80
2023-07-10T14:11:01.169Z,25.90
2023-07-10T14:13:31.892Z,26.00
2023-07-10T14:16:05.856Z,26.10
2023-07-10T14:18:37.050Z,26.20
2023-07-10T14:21:07.576Z,26.20
2023-07-10T14:23:40.557Z,26.10
2023-07-10T14:26:14.678Z,26.20
2023-07-10T14:28:44.716Z,26.10
2023-07-10T14:31:15.614Z,26.00
2023-07-10T14:33:45.701Z,25.90
2023-07-10T14:36:17.439Z,25.80
2023-07-10T14:38:50.713Z,25.70
2023-07-10T14:41:23.719Z,25.10
2023-07-10T14:43:54.291Z,24.70
2023-07-10T14:46:29.355Z,25.00
2023-07-10T14:48:59.578Z,25.20
2023-07-10T14:51:29.629Z,25.40
2023-07-10T14:54:02.339Z,25.60
2023-07-10T14:56:32.439Z,25.70
2023-07-10T14:59:02.462Z,25.90
2023-07-10T15:01:32.642Z,26.00
2023-07-10T15:04:02.766Z,26.20
2023-07-10T15:06:42.024Z,26.30
2023-07-10T15:09:19.091Z,26.50
2023-07-10T15:11:49.242Z,26.60
2023-07-10T15:14:19.473Z,26.60
2023-07-10T15:16:49.528Z,26.50
2023-07-10T15:19:27.315Z,26.40
2023-07-10T15:21:57.469Z,26.30
2023-07-10T15:24:32.244Z,26.20
2023-07-10T15:27:02.326Z,26.30
2023-07-10T15:29:33.072Z,26.30
2023-07-10T15:32:12.908Z,26.20
2023-07-10T15:34:45.446Z,26.20
2023-07-10T15:37:22.929Z,26.10
2023-07-10T15:39:55.923Z,26.20
2023-07-10T15:42:25.950Z,26.30
2023-07-10T15:44:56.016Z,26.30
2023-07-10T15:47:27.507Z,26.30
2023-07-10T15:49:58.373Z,26.50
2023-07-10T15:52:31.085Z,26.50
2023-07-10T15:55:11.568Z,26.60
2023-07-10T15:57:41.608Z,26.60
2023-07-10T16:00:17.822Z,26.50
2023-07-10T16:02:50.345Z,26.50
2023-07-10T16:05:24.808Z,26.60
2023-07-10T16:07:56.449Z,26.60
2023-07-10T16:10:30.096Z,26.70
2023-07-10T16:13:00.289Z,26.50
2023-07-10T16:15:31.415Z,26.20
2023-07-10T16:18:01.750Z,26.30
2023-07-10T16:20:31.960Z,26.40
2023-07-10T16:23:04.324Z,26.30
2023-07-10T16:25:37.038Z,26.20
2023-07-10T16:28:07.386Z,26.10
2023-07-10T16:30:37.498Z,25.90
2023-07-10T16:33:12.216Z,25.80
2023-07-10T16:35:42.248Z,25.70
2023-07-10T16:38:15.717Z,25.60
2023-07-10T16:40:49.571Z,25.50
2023-07-10T16:43:22.330Z,25.40
2023-07-10T16:45:54.230Z,25.20
2023-07-10T16:48:26.396Z,24.90
2023-07-10T16:51:02.012Z,24.80
2023-07-10T16:53:34.976Z,24.90
2023-07-10T16:56:08.316Z,25.00
2023-07-10T16:58:41.489Z,24.90
2023-07-10T17:01:20.657Z,24.90
2023-07-10T17:03:54.022Z,24.80
2023-07-10T17:06:26.813Z,24.70
2023-07-10T17:08:56.862Z,24.60
2023-07-10T17:11:31.322Z,24.60
2023-07-10T17:14:02.004Z,24.60
2023-07-10T17:16:32.646Z,24.70
2023-07-10T17:19:02.749Z,24.60
2023-07-10T17:21:32.805Z,24.60
2023-07-10T17:24:06.070Z,24.70
2023-07-10T17:26:38.711Z,24.70
2023-07-10T17:29:14.563Z,24.60
2023-07-10T17:31:44.641Z,24.40
2023-07-10T17:34:21.458Z,24.40
2023-07-10T17:36:51.504Z,24.30
2023-07-10T17:39:25.435Z,24.30
2023-07-10T17:42:00.029Z,24.30
2023-07-10T17:44:34.503Z,24.30
2023-07-10T17:47:04.969Z,24.50
2023-07-10T17:49:38.526Z,24.60
2023-07-10T17:52:15.216Z,24.90
2023-07-10T17:54:45.796Z,24.90
2023-07-10T17:57:20.246Z,24.90
2023-07-10T17:59:51.641Z,25.00
2023-07-10T18:02:24.879Z,24.90
2023-07-10T18:04:55.156Z,24.80
2023-07-10T18:07:25.430Z,24.80
2023-07-10T18:09:55.479Z,24.70
2023-07-10T18:12:28.175Z,24.60
2023-07-10T18:14:58.202Z,24.60
2023-07-10T18:17:28.275Z,24.60
2023-07-10T18:19:58.413Z,24.40
2023-07-10T18:22:28.510Z,24.10
2023-07-10T18:24:58.525Z,23.70
2023-07-10T18:27:31.235Z,23.50
2023-07-10T18:30:04.458Z,23.20
2023-07-10T18:32:34.832Z,23.00
2023-07-10T18:35:05.908Z,23.00
2023-07-10T18:37:35.974Z,22.70
2023-07-10T18:40:06.097Z,22.70
2023-07-10T18:42:38.890Z,22.70
2023-07-10T18:45:18.759Z,22.70
2023-07-10T18:47:49.013Z,22.90
2023-07-10T18:50:23.214Z,23.10
2023-07-10T18:52:54.903Z,23.10
2023-07-10T18:55:25.395Z,23.10
2023-07-10T18:57:58.713Z,23.20
2023-07-10T19:00:28.789Z,23.20
2023-07-10T19:02:58.931Z,23.30
2023-07-10T19:05:29.070Z,23.40
2023-07-10T19:07:59.087Z,23.50
2023-07-10T19:10:29.128Z,23.40
2023-07-10T19:13:04.230Z,23.50
2023-07-10T19:15:35.749Z,23.40
2023-07-10T19:18:05.947Z,23.40
2023-07-10T19:20:36.117Z,23.30
2023-07-10T19:23:06.274Z,23.20
2023-07-10T19:25:36.366Z,23.10
2023-07-10T19:28:09.064Z,23.20
2023-07-10T19:30:39.710Z,23.10
2023-07-10T19:33:12.211Z,23.10
2023-07-10T19:35:42.328Z,23.20
2023-07-10T19:38:21.175Z,23.20
2023-07-10T19:40:51.104Z,23.20
2023-07-10T19:43:24.088Z,23.30
2023-07-10T19:45:55.939Z,23.30
2023-07-10T19:48:28.308Z,23.20
2023-07-10T19:51:00.317Z,23.00
2023-07-10T19:53:32.583Z,22.60
2023-07-10T19:56:04.516Z,22.30
2023-07-10T19:58:37.991Z,22.20
2023-07-10T20:01:08.097Z,21.90
2023-07-10T20:03:38.478Z,21.80
2023-07-10T20:06:27.246Z,21.70
2023-07-10T20:08:57.009Z,21.60
2023-07-10T20:11:27.198Z,21.40
2023-07-10T20:13:59.902Z,21.30
2023-07-10T20:16:30.845Z,21.60
2023-07-10T20:19:00.924Z,21.90
2023-07-10T20:21:31.020Z,22.10
2023-07-10T20:24:01.128Z,22.10
2023-07-10T20:26:31.184Z,22.10
2023-07-10T20:29:04.368Z,22.20
2023-07-10T20:31:34.422Z,22.20
2023-07-10T20:34:04.525Z,22.00
2023-07-10T20:36:35.043Z,21.90
2023-07-10T20:39:05.106Z,21.60
2023-07-10T20:41:35.164Z,21.50
2023-07-10T20:44:15.171Z,21.30
2023-07-10T20:46:46.217Z,21.10
2023-07-10T20:49:17.727Z,20.80
2023-07-10T20:51:47.916Z,20.80
2023-07-10T20:54:19.413Z,20.90
2023-07-10T20:56:54.256Z,21.00
2023-07-10T20:59:29.080Z,21.10
2023-07-10T21:01:59.676Z,21.20
2023-07-10T21:04:31.471Z,21.10
2023-07-10T21:07:09.221Z,21.00
2023-07-10T21:10:00.222Z,21.00
2023-07-10T21:12:30.830Z,21.10
2023-07-10T21:15:03.533Z,21.30
2023-07-10T21:17:35.518Z,21.40
2023-07-10T21:20:05.765Z,21.50
2023-07-10T21:22:38.028Z,21.50
2023-07-10T21:25:08.767Z,21.50
2023-07-10T21:27:39.616Z,21.60
2023-07-10T21:30:18.886Z,21.50
2023-07-10T21:32:49.796Z,21.50
2023-07-10T21:35:30.832Z,21.50
2023-07-10T21:38:01.286Z,21.60
2023-07-10T21:40:31.363Z,21.60
2023-07-10T21:43:01.525Z,21.60
2023-07-10T21:45:34.136Z,21.60
2023-07-10T21:48:04.517Z,21.70
2023-07-10T21:50:34.861Z,21.70
2023-07-10T21:53:04.897Z,21.60
2023-07-10T21:55:34.935Z,21.50
2023-07-10T21:58:05.013Z,21.40
2023-07-10T22:00:37.726Z,21.40
2023-07-10T22:03:13.090Z,21.30
2023-07-10T22:05:43.152Z,21.30
2023-07-10T22:08:13.233Z,21.20
2023-07-10T22:10:44.678Z,21.20
2023-07-10T22:13:18.556Z,21.20
2023-07-10T22:15:53.177Z,21.20
2023-07-10T22:18:26.002Z,21.10
2023-07-10T22:20:57.669Z,21.10
2023-07-10T22:23:32.217Z,21.20
2023-07-10T22:26:04.287Z,21.20
2023-07-10T22:28:36.412Z,21.30
2023-07-10T22:31:10.508Z,21.30
2023-07-10T22:33:41.824Z,21.30
2023-07-10T22:36:12.006Z,21.30
2023-07-10T22:38:42.080Z,21.30
2023-07-10T22:41:16.284Z,21.20
2023-07-10T22:43:50.424Z,21.20
2023-07-10T22:46:26.771Z,21.10
2023-07-10T22:48:57.089Z,21.10
2023-07-10T22:51:29.297Z,21.10
2023-07-10T22:53:59.343Z,21.10
2023-07-10T22:56:31.212Z,21.00
2023-07-10T22:59:02.088Z,21.00
2023-07-10T23:01:35.695Z,21.00
2023-07-10T23:04:05.889Z,21.00
2023-07-10T23:06:35.955Z,20.80
2023-07-10T23:09:06.820Z,20.80
2023-07-10T23:11:36.918Z,20.70
2023-07-10T23:14:07.049Z,20.70
2023-07-10T23:16:41.050Z,20.70
2023-07-10T23:19:12.293Z,20.70
2023-07-10T23:21:42.571Z,20.60
2023-07-10T23:24:13.068Z,20.60
2023-07-10T23:26:43.124Z,20.50
2023-07-10T23:29:13.924Z,20.40
2023-07-10T23:31:46.657Z,20.50
2023-07-10T23:34:16.767Z,20.30
2023-07-10T23:36:47.588Z,20.30
2023-07-10T23:39:17.726Z,20.30
2023-07-10T23:41:47.798Z,20.30
2023-07-10T23:44:17.831Z,20.20
2023-07-10T23:46:50.543Z,20.30
2023-07-10T23:49:20.600Z,20.40
2023-07-10T23:51:50.625Z,20.30
2023-07-10T23:54:20.661Z,20.40
2023-07-10T23:56:59.732Z,20.30
2023-07-10T23:59:40.569Z,20.40
